Princimar Pride — V7XL5 — position and weather

sailwx.info

Track history (hours):
 
Tides and Currents Weather Stations Pressure Air Temp Water Temp Dewpoint Dewpoint Depression Visibility Wind Speed Wind Dir Waves Ship Positions

Princimar Pride

Last reported at 2018-Apr-20 09:33 UTC. Time now 2018-Apr-24 14:30 UTC.
Position N 23°30' E 118°18'.

Length 274 m; draft 9 m.

Type: Ship. MMSI: 538004509.

Date/timePositionNaut miles runAvg speedWind from/ knotsBaromVisibWave heightAir tempDewpointWater temp
2018-Apr-20 09:33N 23°30' E 118°18'620.1
2018-Apr-20 09:16N 23°34' E 118°22'519.9
2018-Apr-20 09:00N 23°37' E 118°26'1019.8
2018-Apr-20 08:31N 23°45' E 118°34'1019.8
2018-Apr-20 08:00N 23°51' E 118°42'1019.6
2018-Apr-20 07:30N 23°58' E 118°49'1119.9
2018-Apr-20 06:56N 24°06' E 118°58'2519.7
2018-Apr-20 05:41N 24°23' E 119°18'419.1
2018-Apr-20 05:28N 24°26' E 119°21'818.2
2018-Apr-20 05:00N 24°33' E 119°27'44218.7
2018-Apr-19 05:19N 30°12' E 124°46'9518.0
2018-Apr-19 00:02N 31°26' E 125°56'016.7
2018-Apr-19 00:00N 31°26' E 125°56'917.2
2018-Apr-18 23:28N 31°34' E 126°01'818.1
2018-Apr-18 23:00N 31°41' E 126°07'1119.1
2018-Apr-18 22:27N 31°49' E 126°15'5819.1
2018-Apr-18 19:25N 32°35' E 126°58'918.6
2018-Apr-18 18:57N 32°41' E 127°04'1018.9
2018-Apr-18 18:26N 32°49' E 127°11'1319.0
2018-Apr-18 17:44N 32°59' E 127°21'3118.9
2018-Apr-18 16:06N 33°24' E 127°44'219.0
2018-Apr-18 16:00N 33°25' E 127°45'1218.9
2018-Apr-18 15:22N 33°35' E 127°54'718.7
2018-Apr-18 15:00N 33°40' E 127°59'918.8
2018-Apr-18 14:30N 33°47' E 128°06'918.6
2018-Apr-18 14:00N 33°55' E 128°13'918.6
2018-Apr-18 13:30N 34°02' E 128°20'918.6
2018-Apr-18 13:01N 34°09' E 128°27'918.8
2018-Apr-18 12:30N 34°17' E 128°34'1319.2
2018-Apr-18 11:51N 34°27' E 128°43'719.5
2018-Apr-18 11:30N 34°32' E 128°48'1319.2
2018-Apr-18 10:49N 34°44' E 128°55'1018.7
2018-Apr-18 10:15N 34°54' E 128°51'34 3.1
2018-Apr-17 23:09N 34°48' E 129°32'716.2
2018-Apr-17 22:44N 34°45' E 129°39'1217.8
2018-Apr-17 22:04N 34°38' E 129°51'118.5
2018-Apr-17 22:00N 34°37' E 129°52'1217.9
2018-Apr-17 21:19N 34°30' E 130°05'617.9
2018-Apr-17 21:00N 34°27' E 130°10'917.8
2018-Apr-17 20:30N 34°21' E 130°18'917.9
2018-Apr-17 20:00N 34°16' E 130°27'918.4
2018-Apr-17 19:31N 34°10' E 130°36'918.7
2018-Apr-17 19:00N 34°05' E 130°45'917.3
2018-Apr-17 18:30N 33°59' E 130°53'5 9.8
2018-Apr-17 18:01N 33°55' E 130°54'612.1
2018-Apr-17 17:30N 33°59' E 130°59'510.7
2018-Apr-17 17:00N 33°56' E 131°05'510.9
2018-Apr-17 16:30N 33°53' E 131°10'714.8
2018-Apr-17 16:00N 33°51' E 131°19'919.0
2018-Apr-17 15:30N 33°49' E 131°30'918.6
2018-Apr-17 15:00N 33°47' E 131°41'918.7
2018-Apr-17 14:30N 33°39' E 131°48'1019.4
2018-Apr-17 14:00N 33°31' E 131°53'1019.8
2018-Apr-17 13:30N 33°21' E 131°57'1018.1
2018-Apr-17 12:58N 33°12' E 132°01'510.2
2018-Apr-17 12:29N 33°09' E 132°06'2019.0
2018-Apr-17 11:24N 32°53' E 132°20'6816.3
2018-Apr-17 07:15N 32°40' E 133°39'28416.9
2018-Apr-16 14:24N 34°27' E 138°56'1017.5
2018-Apr-16 13:50N 34°31' E 139°06'716.6
2018-Apr-16 13:23N 34°35' E 139°14'1715.4
2018-Apr-16 12:17N 34°44' E 139°31'518.4
2018-Apr-16 12:00N 34°49' E 139°34'918.4
2018-Apr-16 11:30N 34°57' E 139°39'918.2
2018-Apr-16 11:00N 35°06' E 139°43'713.8
2018-Apr-16 10:30N 35°12' E 139°46'612.0
2018-Apr-16 10:00N 35°18' E 139°44'612.5
2018-Apr-16 09:30N 35°24' E 139°42'3 5.5
2018-Apr-16 09:00N 35°27' E 139°41'0 0.3
2018-Apr-16 08:28N 35°26' E 139°41'0 0.0
2018-Apr-16 07:58N 35°26' E 139°41'0 0.0
2018-Apr-16 07:28N 35°26' E 139°41'0 0.0
2018-Apr-16 06:58N 35°26' E 139°41'0 0.0
2018-Apr-16 06:28N 35°26' E 139°41'0 0.0
2018-Apr-16 05:58N 35°26' E 139°41'0 0.0
2018-Apr-16 05:28N 35°26' E 139°41'0 0.0
2018-Apr-16 04:58N 35°26' E 139°41'0 0.0
2018-Apr-16 04:28N 35°26' E 139°41'0 0.0
2018-Apr-16 03:58N 35°26' E 139°41'0 0.0
2018-Apr-16 03:28N 35°26' E 139°41'0 0.0
2018-Apr-16 02:58N 35°26' E 139°41'0 0.0
2018-Apr-16 02:28N 35°26' E 139°41'0 0.0
2018-Apr-16 01:58N 35°26' E 139°41'0 0.0
2018-Apr-16 01:28N 35°26' E 139°41'0 0.0
2018-Apr-16 00:58N 35°26' E 139°41'0 0.0
2018-Apr-16 00:28N 35°26' E 139°41'0 0.0
2018-Apr-15 23:58N 35°26' E 139°41'0 0.0
2018-Apr-15 23:28N 35°26' E 139°41'0 0.0
2018-Apr-15 22:58N 35°26' E 139°41'0 0.0
2018-Apr-15 22:28N 35°26' E 139°41'0 0.4
2018-Apr-15 22:00N 35°27' E 139°41'2 5.0
2018-Apr-15 21:31N 35°25' E 139°44'510.5
2018-Apr-15 21:01N 35°28' E 139°49'611.5
2018-Apr-15 20:30N 35°34' E 139°49'3 6.3
2018-Apr-15 20:00N 35°36' E 139°46'0 0.0
2018-Apr-15 19:30N 35°36' E 139°46'0 0.0
2018-Apr-15 19:00N 35°36' E 139°46'0 0.0
2018-Apr-15 18:30N 35°36' E 139°46'0 0.0
2018-Apr-15 17:57N 35°36' E 139°46'0 0.0
2018-Apr-15 17:30N 35°36' E 139°46'0 0.0
2018-Apr-15 17:00N 35°36' E 139°46'0 0.0
2018-Apr-15 16:30N 35°36' E 139°46'0 0.0
2018-Apr-15 16:00N 35°36' E 139°46'0 0.0
2018-Apr-15 15:30N 35°36' E 139°46'0 0.0
2018-Apr-15 15:00N 35°36' E 139°46'0 0.0
2018-Apr-15 14:30N 35°36' E 139°46'0 0.0
2018-Apr-15 14:00N 35°36' E 139°46'0 0.0
2018-Apr-15 13:30N 35°36' E 139°46'0 0.0
2018-Apr-15 13:00N 35°36' E 139°46'0 0.0
2018-Apr-15 12:27N 35°36' E 139°46'0 0.3
2018-Apr-15 12:00N 35°36' E 139°46'2 4.7
2018-Apr-15 11:30N 35°35' E 139°48'510.0
2018-Apr-15 11:00N 35°31' E 139°52'713.9
2018-Apr-15 10:30N 35°25' E 139°47'612.6
2018-Apr-15 10:00N 35°19' E 139°44'612.2
2018-Apr-15 09:30N 35°14' E 139°47'611.1
2018-Apr-15 09:00N 35°08' E 139°46'612.7
2018-Apr-15 08:30N 35°03' E 139°43'510.9
2018-Apr-15 08:00N 34°58' E 139°39'1 2.2
2018-Apr-15 07:30N 34°57' E 139°38'2 3.6
2018-Apr-15 07:00N 34°56' E 139°37'612.4
2018-Apr-15 06:30N 34°51' E 139°32'3 5.9
2018-Apr-15 05:59N 34°48' E 139°31'3 5.4
2018-Apr-15 05:30N 34°49' E 139°34'2 4.8
2018-Apr-15 05:00N 34°50' E 139°36'2 4.0
2018-Apr-15 04:30N 34°52' E 139°38'2 3.8
2018-Apr-15 03:57N 34°53' E 139°40'2 3.9
2018-Apr-15 03:30N 34°55' E 139°41'1 2.1
2018-Apr-15 03:00N 34°55' E 139°40'2 3.3
2018-Apr-15 02:30N 34°57' E 139°40'2 3.9
2018-Apr-15 02:00N 34°59' E 139°39'1 1.1
2018-Apr-15 01:30N 34°59' E 139°40'1 2.7
2018-Apr-15 01:00N 35°00' E 139°39'1 1.0
2018-Apr-15 00:30N 35°00' E 139°38'1 2.0
2018-Apr-15 00:00N 35°01' E 139°37'2 3.3
2018-Apr-14 23:31N 35°02' E 139°35'4 7.4
2018-Apr-14 23:00N 35°01' E 139°31'2 3.0
2018-Apr-14 22:31N 34°59' E 139°32'1 2.4
2018-Apr-14 22:00N 34°58' E 139°33'2 3.1
2018-Apr-14 21:31N 34°58' E 139°35'2 3.2
2018-Apr-14 21:01N 34°58' E 139°37'1 2.4
2018-Apr-14 20:30N 34°58' E 139°38'2 2.9
2018-Apr-14 19:59N 34°57' E 139°40'4 9.2
2018-Apr-14 19:30N 34°53' E 139°37'714.4
2018-Apr-14 19:01N 34°46' E 139°34'1014.8
2018-Apr-14 18:19N 34°39' E 139°26'515.1
2018-Apr-14 18:00N 34°37' E 139°20'815.3
2018-Apr-14 17:30N 34°35' E 139°11'816.1
2018-Apr-14 17:00N 34°32' E 139°02'1018.9
2018-Apr-14 16:30N 34°31' E 138°51'816.3
2018-Apr-14 15:59N 34°36' E 138°42'817.5
2018-Apr-14 15:30N 34°44' E 138°39'918.8
2018-Apr-14 15:00N 34°53' E 138°36'917.4
2018-Apr-14 14:30N 35°01' E 138°33'2 3.7
2018-Apr-14 14:00N 35°02' E 138°31'0 0.0
2018-Apr-14 13:30N 35°02' E 138°31'0 0.0
2018-Apr-14 13:00N 35°02' E 138°31'0 0.0
2018-Apr-14 12:30N 35°02' E 138°31'0 0.0
2018-Apr-14 12:00N 35°02' E 138°31'0 0.0
2018-Apr-14 11:30N 35°02' E 138°31'0 0.0
2018-Apr-14 11:00N 35°02' E 138°31'0 0.0
2018-Apr-14 10:30N 35°02' E 138°31'0 0.0
2018-Apr-14 10:00N 35°02' E 138°31'0 0.0
2018-Apr-14 09:30N 35°02' E 138°31'0 0.0
2018-Apr-14 09:00N 35°02' E 138°31'0 0.0
2018-Apr-14 08:30N 35°02' E 138°31'0 0.0
2018-Apr-14 08:00N 35°02' E 138°31'0 0.0
2018-Apr-14 07:30N 35°02' E 138°31'0 0.0
2018-Apr-14 07:00N 35°02' E 138°31'0 0.0
2018-Apr-14 06:30N 35°02' E 138°31'0 0.0
2018-Apr-14 06:00N 35°02' E 138°31'0 0.0
2018-Apr-14 05:30N 35°02' E 138°31'0 0.0
2018-Apr-14 05:00N 35°02' E 138°31'0 0.1
2018-Apr-14 04:30N 35°02' E 138°31'2 3.3
2018-Apr-14 04:00N 35°02' E 138°33'3 5.4
2018-Apr-14 03:30N 34°60' E 138°35'613.0
2018-Apr-14 03:01N 34°53' E 138°37'816.2
2018-Apr-14 02:30N 34°45' E 138°38'918.4
2018-Apr-14 02:00N 34°36' E 138°41'816.8
2018-Apr-14 01:30N 34°31' E 138°49'917.1
2018-Apr-14 01:00N 34°31' E 138°59'1116.7
2018-Apr-14 00:20N 34°35' E 139°12'616.5
2018-Apr-13 23:59N 34°36' E 139°19'816.6
2018-Apr-13 23:30N 34°39' E 139°28'816.1
2018-Apr-13 23:00N 34°46' E 139°33'816.7
2018-Apr-13 22:30N 34°53' E 139°37'917.6
2018-Apr-13 22:00N 35°02' E 139°41'917.2
2018-Apr-13 21:30N 35°10' E 139°45'612.7
2018-Apr-13 21:01N 35°16' E 139°46'713.1
2018-Apr-13 20:30N 35°22' E 139°42'714.8
2018-Apr-13 20:01N 35°27' E 139°48'713.6
2018-Apr-13 19:30N 35°34' E 139°49'3 6.1
2018-Apr-13 19:00N 35°36' E 139°46'0 0.0
2018-Apr-13 18:25N 35°36' E 139°46'0 0.0
2018-Apr-13 17:55N 35°36' E 139°46'0 0.0
2018-Apr-13 17:28N 35°36' E 139°46'0 0.0
2018-Apr-13 16:58N 35°36' E 139°46'0 0.0
2018-Apr-13 16:25N 35°36' E 139°46'0 0.0
2018-Apr-13 15:58N 35°36' E 139°46'0 0.0
2018-Apr-13 15:28N 35°36' E 139°46'0 0.0
2018-Apr-13 14:58N 35°36' E 139°46'0 0.0
2018-Apr-13 14:28N 35°36' E 139°46'0 0.0
2018-Apr-13 13:58N 35°36' E 139°46'0 0.0
2018-Apr-13 13:28N 35°36' E 139°46'0 0.0
2018-Apr-13 12:58N 35°36' E 139°46'0 0.0
2018-Apr-13 12:28N 35°36' E 139°46'0 0.0
2018-Apr-13 11:55N 35°36' E 139°46'0 0.0
2018-Apr-13 11:28N 35°36' E 139°46'0 0.0
2018-Apr-13 10:55N 35°36' E 139°46'0 0.0
2018-Apr-13 10:28N 35°36' E 139°46'0 0.0
2018-Apr-13 09:58N 35°36' E 139°46'0 0.0
2018-Apr-13 09:28N 35°36' E 139°46'0 0.0
2018-Apr-13 08:58N 35°36' E 139°46'0 0.0
2018-Apr-13 08:28N 35°36' E 139°46'0 0.0
2018-Apr-13 07:58N 35°36' E 139°46'1 2.6
2018-Apr-13 07:30N 35°35' E 139°47'5 9.7
2018-Apr-13 07:00N 35°32' E 139°52'4 7.3
2018-Apr-13 06:30N 35°29' E 139°51'714.3
2018-Apr-13 06:00N 35°23' E 139°46'611.6
2018-Apr-13 05:30N 35°17' E 139°45'611.9
2018-Apr-13 05:00N 35°12' E 139°47'4 8.4
2018-Apr-13 04:30N 35°07' E 139°46'510.3
2018-Apr-13 04:00N 35°03' E 139°43'510.5
2018-Apr-13 03:31N 34°58' E 139°41'510.1
2018-Apr-13 03:00N 34°53' E 139°39'3 4.2
2018-Apr-13 02:22N 34°51' E 139°37'1 2.9
2018-Apr-13 02:00N 34°50' E 139°36'510.3
2018-Apr-13 01:29N 34°46' E 139°33'610.8
2018-Apr-13 00:54N 34°40' E 139°29'511.9
2018-Apr-13 00:30N 34°38' E 139°24'611.7
2018-Apr-12 23:59N 34°36' E 139°17'1112.5
2018-Apr-12 23:06N 34°28' E 139°07'112.3
2018-Apr-12 23:01N 34°28' E 139°06'612.2
2018-Apr-12 22:30N 34°24' E 138°60'611.8
2018-Apr-12 21:58N 34°20' E 138°54'511.7
2018-Apr-12 21:31N 34°17' E 138°49'611.6
2018-Apr-12 20:57N 34°13' E 138°43'611.4
2018-Apr-12 20:26N 34°09' E 138°37'511.5
2018-Apr-12 19:59N 34°06' E 138°32'  
Track history (hours):
 
Tides and Currents Weather Stations Pressure Air Temp Water Temp Dewpoint Dewpoint Depression Visibility Wind Speed Wind Dir Waves Ship Positions

Princimar Pride

Last reported at 2018-Apr-20 09:33 UTC. Time now 2018-Apr-24 14:30 UTC.
Position N 23°30' E 118°18'.

Length 274 m; draft 9 m.

Type: Ship. MMSI: 538004509.

Date/timePositionNaut miles runAvg speedWind from/ knotsBaromVisibWave heightAir tempDewpointWater temp
2018-Apr-20 09:33N 23°30' E 118°18'620.1
2018-Apr-20 09:16N 23°34' E 118°22'519.9
2018-Apr-20 09:00N 23°37' E 118°26'1019.8
2018-Apr-20 08:31N 23°45' E 118°34'1019.8
2018-Apr-20 08:00N 23°51' E 118°42'1019.6
2018-Apr-20 07:30N 23°58' E 118°49'1119.9
2018-Apr-20 06:56N 24°06' E 118°58'2519.7
2018-Apr-20 05:41N 24°23' E 119°18'419.1
2018-Apr-20 05:28N 24°26' E 119°21'818.2
2018-Apr-20 05:00N 24°33' E 119°27'44218.7
2018-Apr-19 05:19N 30°12' E 124°46'9518.0
2018-Apr-19 00:02N 31°26' E 125°56'016.7
2018-Apr-19 00:00N 31°26' E 125°56'917.2
2018-Apr-18 23:28N 31°34' E 126°01'818.1
2018-Apr-18 23:00N 31°41' E 126°07'1119.1
2018-Apr-18 22:27N 31°49' E 126°15'5819.1
2018-Apr-18 19:25N 32°35' E 126°58'918.6
2018-Apr-18 18:57N 32°41' E 127°04'1018.9
2018-Apr-18 18:26N 32°49' E 127°11'1319.0
2018-Apr-18 17:44N 32°59' E 127°21'3118.9
2018-Apr-18 16:06N 33°24' E 127°44'219.0
2018-Apr-18 16:00N 33°25' E 127°45'1218.9
2018-Apr-18 15:22N 33°35' E 127°54'718.7
2018-Apr-18 15:00N 33°40' E 127°59'918.8
2018-Apr-18 14:30N 33°47' E 128°06'918.6
2018-Apr-18 14:00N 33°55' E 128°13'918.6
2018-Apr-18 13:30N 34°02' E 128°20'918.6
2018-Apr-18 13:01N 34°09' E 128°27'918.8
2018-Apr-18 12:30N 34°17' E 128°34'1319.2
2018-Apr-18 11:51N 34°27' E 128°43'719.5
2018-Apr-18 11:30N 34°32' E 128°48'1319.2
2018-Apr-18 10:49N 34°44' E 128°55'1018.7
2018-Apr-18 10:15N 34°54' E 128°51'34 3.1
2018-Apr-17 23:09N 34°48' E 129°32'716.2
2018-Apr-17 22:44N 34°45' E 129°39'1217.8
2018-Apr-17 22:04N 34°38' E 129°51'118.5
2018-Apr-17 22:00N 34°37' E 129°52'1217.9
2018-Apr-17 21:19N 34°30' E 130°05'617.9
2018-Apr-17 21:00N 34°27' E 130°10'917.8
2018-Apr-17 20:30N 34°21' E 130°18'917.9
2018-Apr-17 20:00N 34°16' E 130°27'918.4
2018-Apr-17 19:31N 34°10' E 130°36'918.7
2018-Apr-17 19:00N 34°05' E 130°45'917.3
2018-Apr-17 18:30N 33°59' E 130°53'5 9.8
2018-Apr-17 18:01N 33°55' E 130°54'612.1
2018-Apr-17 17:30N 33°59' E 130°59'510.7
2018-Apr-17 17:00N 33°56' E 131°05'510.9
2018-Apr-17 16:30N 33°53' E 131°10'714.8
2018-Apr-17 16:00N 33°51' E 131°19'919.0
2018-Apr-17 15:30N 33°49' E 131°30'918.6
2018-Apr-17 15:00N 33°47' E 131°41'918.7
2018-Apr-17 14:30N 33°39' E 131°48'1019.4
2018-Apr-17 14:00N 33°31' E 131°53'1019.8
2018-Apr-17 13:30N 33°21' E 131°57'1018.1
2018-Apr-17 12:58N 33°12' E 132°01'510.2
2018-Apr-17 12:29N 33°09' E 132°06'2019.0
2018-Apr-17 11:24N 32°53' E 132°20'6816.3
2018-Apr-17 07:15N 32°40' E 133°39'28416.9
2018-Apr-16 14:24N 34°27' E 138°56'1017.5
2018-Apr-16 13:50N 34°31' E 139°06'716.6
2018-Apr-16 13:23N 34°35' E 139°14'1715.4
2018-Apr-16 12:17N 34°44' E 139°31'518.4
2018-Apr-16 12:00N 34°49' E 139°34'918.4
2018-Apr-16 11:30N 34°57' E 139°39'918.2
2018-Apr-16 11:00N 35°06' E 139°43'713.8
2018-Apr-16 10:30N 35°12' E 139°46'612.0
2018-Apr-16 10:00N 35°18' E 139°44'612.5
2018-Apr-16 09:30N 35°24' E 139°42'3 5.5
2018-Apr-16 09:00N 35°27' E 139°41'0 0.3
2018-Apr-16 08:28N 35°26' E 139°41'0 0.0
2018-Apr-16 07:58N 35°26' E 139°41'0 0.0
2018-Apr-16 07:28N 35°26' E 139°41'0 0.0
2018-Apr-16 06:58N 35°26' E 139°41'0 0.0
2018-Apr-16 06:28N 35°26' E 139°41'0 0.0
2018-Apr-16 05:58N 35°26' E 139°41'0 0.0
2018-Apr-16 05:28N 35°26' E 139°41'0 0.0
2018-Apr-16 04:58N 35°26' E 139°41'0 0.0
2018-Apr-16 04:28N 35°26' E 139°41'0 0.0
2018-Apr-16 03:58N 35°26' E 139°41'0 0.0
2018-Apr-16 03:28N 35°26' E 139°41'0 0.0
2018-Apr-16 02:58N 35°26' E 139°41'0 0.0
2018-Apr-16 02:28N 35°26' E 139°41'0 0.0
2018-Apr-16 01:58N 35°26' E 139°41'0 0.0
2018-Apr-16 01:28N 35°26' E 139°41'0 0.0
2018-Apr-16 00:58N 35°26' E 139°41'0 0.0
2018-Apr-16 00:28N 35°26' E 139°41'0 0.0
2018-Apr-15 23:58N 35°26' E 139°41'0 0.0
2018-Apr-15 23:28N 35°26' E 139°41'0 0.0
2018-Apr-15 22:58N 35°26' E 139°41'0 0.0
2018-Apr-15 22:28N 35°26' E 139°41'0 0.4
2018-Apr-15 22:00N 35°27' E 139°41'2 5.0
2018-Apr-15 21:31N 35°25' E 139°44'510.5
2018-Apr-15 21:01N 35°28' E 139°49'611.5
2018-Apr-15 20:30N 35°34' E 139°49'3 6.3
2018-Apr-15 20:00N 35°36' E 139°46'0 0.0
2018-Apr-15 19:30N 35°36' E 139°46'0 0.0
2018-Apr-15 19:00N 35°36' E 139°46'0 0.0
2018-Apr-15 18:30N 35°36' E 139°46'0 0.0
2018-Apr-15 17:57N 35°36' E 139°46'0 0.0
2018-Apr-15 17:30N 35°36' E 139°46'0 0.0
2018-Apr-15 17:00N 35°36' E 139°46'0 0.0
2018-Apr-15 16:30N 35°36' E 139°46'0 0.0
2018-Apr-15 16:00N 35°36' E 139°46'0 0.0
2018-Apr-15 15:30N 35°36' E 139°46'0 0.0
2018-Apr-15 15:00N 35°36' E 139°46'0 0.0
2018-Apr-15 14:30N 35°36' E 139°46'0 0.0
2018-Apr-15 14:00N 35°36' E 139°46'0 0.0
2018-Apr-15 13:30N 35°36' E 139°46'0 0.0
2018-Apr-15 13:00N 35°36' E 139°46'0 0.0
2018-Apr-15 12:27N 35°36' E 139°46'0 0.3
2018-Apr-15 12:00N 35°36' E 139°46'2 4.7
2018-Apr-15 11:30N 35°35' E 139°48'510.0
2018-Apr-15 11:00N 35°31' E 139°52'713.9
2018-Apr-15 10:30N 35°25' E 139°47'612.6
2018-Apr-15 10:00N 35°19' E 139°44'612.2
2018-Apr-15 09:30N 35°14' E 139°47'611.1
2018-Apr-15 09:00N 35°08' E 139°46'612.7
2018-Apr-15 08:30N 35°03' E 139°43'510.9
2018-Apr-15 08:00N 34°58' E 139°39'1 2.2
2018-Apr-15 07:30N 34°57' E 139°38'2 3.6
2018-Apr-15 07:00N 34°56' E 139°37'612.4
2018-Apr-15 06:30N 34°51' E 139°32'3 5.9
2018-Apr-15 05:59N 34°48' E 139°31'3 5.4
2018-Apr-15 05:30N 34°49' E 139°34'2 4.8
2018-Apr-15 05:00N 34°50' E 139°36'2 4.0
2018-Apr-15 04:30N 34°52' E 139°38'2 3.8
2018-Apr-15 03:57N 34°53' E 139°40'2 3.9
2018-Apr-15 03:30N 34°55' E 139°41'1 2.1
2018-Apr-15 03:00N 34°55' E 139°40'2 3.3
2018-Apr-15 02:30N 34°57' E 139°40'2 3.9
2018-Apr-15 02:00N 34°59' E 139°39'1 1.1
2018-Apr-15 01:30N 34°59' E 139°40'1 2.7
2018-Apr-15 01:00N 35°00' E 139°39'1 1.0
2018-Apr-15 00:30N 35°00' E 139°38'1 2.0
2018-Apr-15 00:00N 35°01' E 139°37'2 3.3
2018-Apr-14 23:31N 35°02' E 139°35'4 7.4
2018-Apr-14 23:00N 35°01' E 139°31'2 3.0
2018-Apr-14 22:31N 34°59' E 139°32'1 2.4
2018-Apr-14 22:00N 34°58' E 139°33'2 3.1
2018-Apr-14 21:31N 34°58' E 139°35'2 3.2
2018-Apr-14 21:01N 34°58' E 139°37'1 2.4
2018-Apr-14 20:30N 34°58' E 139°38'2 2.9
2018-Apr-14 19:59N 34°57' E 139°40'4 9.2
2018-Apr-14 19:30N 34°53' E 139°37'714.4
2018-Apr-14 19:01N 34°46' E 139°34'1014.8
2018-Apr-14 18:19N 34°39' E 139°26'515.1
2018-Apr-14 18:00N 34°37' E 139°20'815.3
2018-Apr-14 17:30N 34°35' E 139°11'816.1
2018-Apr-14 17:00N 34°32' E 139°02'1018.9
2018-Apr-14 16:30N 34°31' E 138°51'816.3
2018-Apr-14 15:59N 34°36' E 138°42'817.5
2018-Apr-14 15:30N 34°44' E 138°39'918.8
2018-Apr-14 15:00N 34°53' E 138°36'917.4
2018-Apr-14 14:30N 35°01' E 138°33'2 3.7
2018-Apr-14 14:00N 35°02' E 138°31'0 0.0
2018-Apr-14 13:30N 35°02' E 138°31'0 0.0
2018-Apr-14 13:00N 35°02' E 138°31'0 0.0
2018-Apr-14 12:30N 35°02' E 138°31'0 0.0
2018-Apr-14 12:00N 35°02' E 138°31'0 0.0
2018-Apr-14 11:30N 35°02' E 138°31'0 0.0
2018-Apr-14 11:00N 35°02' E 138°31'0 0.0
2018-Apr-14 10:30N 35°02' E 138°31'0 0.0
2018-Apr-14 10:00N 35°02' E 138°31'0 0.0
2018-Apr-14 09:30N 35°02' E 138°31'0 0.0
2018-Apr-14 09:00N 35°02' E 138°31'0 0.0
2018-Apr-14 08:30N 35°02' E 138°31'0 0.0
2018-Apr-14 08:00N 35°02' E 138°31'0 0.0
2018-Apr-14 07:30N 35°02' E 138°31'0 0.0
2018-Apr-14 07:00N 35°02' E 138°31'0 0.0
2018-Apr-14 06:30N 35°02' E 138°31'0 0.0
2018-Apr-14 06:00N 35°02' E 138°31'0 0.0
2018-Apr-14 05:30N 35°02' E 138°31'0 0.0
2018-Apr-14 05:00N 35°02' E 138°31'0 0.1
2018-Apr-14 04:30N 35°02' E 138°31'2 3.3
2018-Apr-14 04:00N 35°02' E 138°33'3 5.4
2018-Apr-14 03:30N 34°60' E 138°35'613.0
2018-Apr-14 03:01N 34°53' E 138°37'816.2
2018-Apr-14 02:30N 34°45' E 138°38'918.4
2018-Apr-14 02:00N 34°36' E 138°41'816.8
2018-Apr-14 01:30N 34°31' E 138°49'917.1
2018-Apr-14 01:00N 34°31' E 138°59'1116.7
2018-Apr-14 00:20N 34°35' E 139°12'616.5
2018-Apr-13 23:59N 34°36' E 139°19'816.6
2018-Apr-13 23:30N 34°39' E 139°28'816.1
2018-Apr-13 23:00N 34°46' E 139°33'816.7
2018-Apr-13 22:30N 34°53' E 139°37'917.6
2018-Apr-13 22:00N 35°02' E 139°41'917.2
2018-Apr-13 21:30N 35°10' E 139°45'612.7
2018-Apr-13 21:01N 35°16' E 139°46'713.1
2018-Apr-13 20:30N 35°22' E 139°42'714.8
2018-Apr-13 20:01N 35°27' E 139°48'713.6
2018-Apr-13 19:30N 35°34' E 139°49'3 6.1
2018-Apr-13 19:00N 35°36' E 139°46'0 0.0
2018-Apr-13 18:25N 35°36' E 139°46'0 0.0
2018-Apr-13 17:55N 35°36' E 139°46'0 0.0
2018-Apr-13 17:28N 35°36' E 139°46'0 0.0
2018-Apr-13 16:58N 35°36' E 139°46'0 0.0
2018-Apr-13 16:25N 35°36' E 139°46'0 0.0
2018-Apr-13 15:58N 35°36' E 139°46'0 0.0
2018-Apr-13 15:28N 35°36' E 139°46'0 0.0
2018-Apr-13 14:58N 35°36' E 139°46'0 0.0
2018-Apr-13 14:28N 35°36' E 139°46'0 0.0
2018-Apr-13 13:58N 35°36' E 139°46'0 0.0
2018-Apr-13 13:28N 35°36' E 139°46'0 0.0
2018-Apr-13 12:58N 35°36' E 139°46'0 0.0
2018-Apr-13 12:28N 35°36' E 139°46'0 0.0
2018-Apr-13 11:55N 35°36' E 139°46'0 0.0
2018-Apr-13 11:28N 35°36' E 139°46'0 0.0
2018-Apr-13 10:55N 35°36' E 139°46'0 0.0
2018-Apr-13 10:28N 35°36' E 139°46'0 0.0
2018-Apr-13 09:58N 35°36' E 139°46'0 0.0
2018-Apr-13 09:28N 35°36' E 139°46'0 0.0
2018-Apr-13 08:58N 35°36' E 139°46'0 0.0
2018-Apr-13 08:28N 35°36' E 139°46'0 0.0
2018-Apr-13 07:58N 35°36' E 139°46'1 2.6
2018-Apr-13 07:30N 35°35' E 139°47'5 9.7
2018-Apr-13 07:00N 35°32' E 139°52'4 7.3
2018-Apr-13 06:30N 35°29' E 139°51'714.3
2018-Apr-13 06:00N 35°23' E 139°46'611.6
2018-Apr-13 05:30N 35°17' E 139°45'611.9
2018-Apr-13 05:00N 35°12' E 139°47'4 8.4
2018-Apr-13 04:30N 35°07' E 139°46'510.3
2018-Apr-13 04:00N 35°03' E 139°43'510.5
2018-Apr-13 03:31N 34°58' E 139°41'510.1
2018-Apr-13 03:00N 34°53' E 139°39'3 4.2
2018-Apr-13 02:22N 34°51' E 139°37'1 2.9
2018-Apr-13 02:00N 34°50' E 139°36'510.3
2018-Apr-13 01:29N 34°46' E 139°33'610.8
2018-Apr-13 00:54N 34°40' E 139°29'511.9
2018-Apr-13 00:30N 34°38' E 139°24'611.7
2018-Apr-12 23:59N 34°36' E 139°17'1112.5
2018-Apr-12 23:06N 34°28' E 139°07'112.3
2018-Apr-12 23:01N 34°28' E 139°06'612.2
2018-Apr-12 22:30N 34°24' E 138°60'611.8
2018-Apr-12 21:58N 34°20' E 138°54'511.7
2018-Apr-12 21:31N 34°17' E 138°49'611.6
2018-Apr-12 20:57N 34°13' E 138°43'611.4
2018-Apr-12 20:26N 34°09' E 138°37'511.5
2018-Apr-12 19:59N 34°06' E 138°32'  

Dump ship's entire track history